Glen Raven, North Carolina
Current Conditions -  °F | °C
As of 6:54 AM on Friday 24 Oct 2014 (Local Time) from KBUY Reporting Station
Clear Clear  
Wind Chill: 42°   Ceiling: Unl
Heat Index: 45°   Visibility: 10mi
Dew Point: 38°   Wind: 6mph
Humidity: 76%   Direction: 250°WSW
Pressure: 30.04"   Gusts: NA
Location:  36.0354°N, 79.4943°W
Report Text: KBUY 241054Z AUTO 25005KT 10SM CLR 07/03 A3004 RMK AO2 SLP170 T00720033
Loading
Personal Weather Stations






























Interactive Weather Map
Tropical Storm Tracking
New forecast layout! Learn more

10-Day Weather Forecast

Advertisements
Track Severe Weather on mobile